Lugano, Switzerland
Current Conditions -  °F | °C
As of 12:50 AM on Saturday 29 Nov 2014 (Local Time) from LSZA Reporting Station
Rain Showers Rain Showers  
Wind Chill: 48°   Ceiling: 3700
Heat Index: 48°   Visibility: 1.6mi
Dew Point: 48°   Wind: 1mph
Humidity: 100%   Direction: NA
Pressure: 30"   Gusts: NA
Location:  46.01°N, 8.94°E
Report Text: LSZA 282350Z AUTO VRB01KT 2700 -SHRA BR FEW003 BKN037 BKN042 09/09 Q1016
Loading
Personal Weather Stations






























Interactive Weather Map New forecast layout! Learn more

10-Day Weather Forecast

Advertisements
Track Severe Weather on mobile